Time;durP1;ratioP1;P1;durP2;ratioP2;P2;SDS_P1;SDS_P2;PMS_P1;PMS_P2;Temp;Humidity;BMP_temperature;BMP_pressure;BME280_temperature;BME280_humidity;BME280_pressure;Samples;Min_cycle;Max_cycle;Signal;HPM_P1;HPM_P2
2021/03/22 00:01:35;;;;;;;14.33;2.90;;;;;;;4.39;69.53;101206.22;4971648;28;20224;-64
2021/03/22 00:04:02;;;;;;;18.87;3.30;;;;;;;4.39;69.90;101214.13;4969066;28;20205;-62
2021/03/22 00:06:29;;;;;;;12.77;3.10;;;;;;;4.39;70.02;101211.47;4964171;28;20200;-64
2021/03/22 00:08:56;;;;;;;14.20;2.93;;;;;;;4.39;69.72;101214.13;4971390;28;20204;-64
2021/03/22 00:11:22;;;;;;;16.13;3.13;;;;;;;4.39;70.39;101224.66;4971843;28;20578;-64
2021/03/22 00:13:48;;;;;;;14.73;2.80;;;;;;;4.38;69.54;101220.31;4972258;28;20214;-64
2021/03/22 00:16:15;;;;;;;14.63;2.77;;;;;;;4.39;69.69;101216.75;4967665;28;20229;-64
2021/03/22 00:18:41;;;;;;;22.33;2.90;;;;;;;4.39;70.29;101222.03;4970468;28;20217;-64
2021/03/22 00:21:10;;;;;;;10.00;2.30;;;;;;;4.38;69.83;101220.31;4969563;28;20254;-64
2021/03/22 00:23:36;;;;;;;13.17;3.27;;;;;;;4.37;70.34;101219.44;4969909;28;20295;-64
2021/03/22 00:26:03;;;;;;;14.27;3.00;;;;;;;4.37;69.95;101219.44;4970020;28;20235;-60
2021/03/22 00:28:30;;;;;;;13.60;2.77;;;;;;;4.38;70.53;101222.94;4971579;28;20572;-63
2021/03/22 00:30:56;;;;;;;19.47;3.33;;;;;;;4.39;70.03;101224.66;4972131;28;20254;-63
2021/03/22 00:33:23;;;;;;;12.10;2.97;;;;;;;4.39;70.07;101224.66;4970244;28;20568;-63
2021/03/22 00:35:50;;;;;;;13.63;2.93;;;;;;;4.40;70.99;101223.75;4964823;28;20235;-64
2021/03/22 00:38:19;;;;;;;16.10;3.63;;;;;;;4.39;70.83;101222.03;4970442;28;20678;-63
2021/03/22 00:40:46;;;;;;;21.07;3.03;;;;;;;4.39;70.23;101228.19;4972089;28;20200;-64
2021/03/22 00:43:13;;;;;;;20.60;3.53;;;;;;;4.41;70.45;101236.91;4967676;28;20220;-63
2021/03/22 00:45:39;;;;;;;15.37;3.57;;;;;;;4.40;71.06;101234.31;4977901;28;20235;-63
2021/03/22 00:48:07;;;;;;;19.63;3.57;;;;;;;4.39;70.59;101238.72;4982929;28;20208;-62
2021/03/22 00:50:35;;;;;;;12.07;2.70;;;;;;;4.40;70.33;101237.81;4983171;28;20210;-63
2021/03/22 00:53:01;;;;;;;15.30;3.37;;;;;;;4.40;70.99;101229.03;4971667;28;20732;-63
2021/03/22 00:55:28;;;;;;;15.03;4.53;;;;;;;4.40;71.27;101226.41;4970974;28;20230;-63
2021/03/22 00:57:55;;;;;;;17.00;3.73;;;;;;;4.41;70.94;101228.13;4985529;28;20576;-64
2021/03/22 01:00:25;;;;;;;15.17;4.27;;;;;;;4.40;71.03;101224.63;4974596;28;20303;-63
2021/03/22 01:02:52;;;;;;;19.27;3.63;;;;;;;4.41;71.58;101225.50;4971628;28;20368;-63
2021/03/22 01:05:19;;;;;;;17.53;3.50;;;;;;;4.41;71.41;101220.22;4971172;28;20232;-64
2021/03/22 01:07:46;;;;;;;16.40;2.87;;;;;;;4.39;71.74;101222.91;4974079;28;20210;-63
2021/03/22 01:10:25;;;;;;;18.27;2.97;;;;;;;4.39;71.31;101222.91;4988429;28;20230;-63
2021/03/22 01:12:52;;;;;;;14.47;3.83;;;;;;;4.39;71.22;101222.03;4968880;28;20586;-63
2021/03/22 01:15:19;;;;;;;18.83;3.37;;;;;;;4.39;71.80;101228.19;4969048;28;20636;-63
2021/03/22 01:17:46;;;;;;;19.47;2.93;;;;;;;4.38;71.88;101210.63;4969478;28;20216;-64
2021/03/22 01:20:15;;;;;;;22.23;3.07;;;;;;;4.38;72.16;101218.53;4967201;28;20256;-64
2021/03/22 01:22:41;;;;;;;16.83;3.30;;;;;;;4.37;72.19;101216.81;4970796;28;20215;-64
2021/03/22 01:25:09;;;;;;;17.60;2.90;;;;;;;4.38;72.20;101212.38;4971496;28;20250;-65
2021/03/22 01:27:37;;;;;;;15.33;3.60;;;;;;;4.38;72.11;101207.13;4970678;28;20718;-64
2021/03/22 01:30:11;;;;;;;19.23;3.57;;;;;;;4.37;72.03;101206.25;4972856;28;20303;-64
2021/03/22 01:32:37;;;;;;;17.10;3.03;;;;;;;4.38;72.36;101212.38;4974970;28;20644;-64
2021/03/22 01:35:04;;;;;;;13.17;2.93;;;;;;;4.38;72.38;101210.63;4974829;28;20323;-64
2021/03/22 01:37:30;;;;;;;12.33;3.37;;;;;;;4.38;72.32;101202.72;4973404;28;20208;-64
2021/03/22 01:39:57;;;;;;;10.50;3.10;;;;;;;4.38;71.99;101212.38;4973951;28;20291;-65
2021/03/22 01:42:36;;;;;;;13.87;3.13;;;;;;;4.37;71.86;101218.56;4974819;28;20247;-63
2021/03/22 01:45:06;;;;;;;14.43;3.03;;;;;;;4.37;72.38;101203.63;4974396;28;20769;-65
2021/03/22 01:47:34;;;;;;;18.73;3.37;;;;;;;4.37;72.07;101208.88;4974244;28;20319;-65
2021/03/22 01:50:05;;;;;;;12.80;3.20;;;;;;;4.38;72.34;101204.47;4973761;28;20215;-65
2021/03/22 01:52:35;;;;;;;22.67;4.30;;;;;;;4.38;72.69;101207.13;4973967;28;20658;-64
2021/03/22 01:55:02;;;;;;;9.17;3.50;;;;;;;4.36;72.78;101195.75;4974080;28;20268;-64
2021/03/22 01:57:31;;;;;;;19.73;4.00;;;;;;;4.37;73.02;101192.19;4973447;28;20211;-64
2021/03/22 02:00:23;;;;;;;14.23;3.67;;;;;;;4.35;72.49;101196.66;4974233;28;20658;-65
2021/03/22 02:02:54;;;;;;;16.33;3.97;;;;;;;4.34;72.21;101201.06;4962023;28;20295;-64
2021/03/22 02:05:23;;;;;;;13.47;3.40;;;;;;;4.32;72.57;101200.22;4974735;28;20232;-65
2021/03/22 02:07:54;;;;;;;16.53;3.67;;;;;;;4.31;72.77;101200.28;4972705;28;20295;-64
2021/03/22 02:10:21;;;;;;;16.93;4.03;;;;;;;4.30;72.71;101206.50;4971379;28;20208;-65
2021/03/22 02:12:47;;;;;;;17.37;4.17;;;;;;;4.29;72.59;101197.72;4973350;28;20208;-60
2021/03/22 02:15:14;;;;;;;18.63;3.67;;;;;;;4.27;72.88;101196.91;4973864;28;20252;-64
2021/03/22 02:17:50;;;;;;;13.13;3.43;;;;;;;4.26;72.90;101195.16;4972035;28;20259;-64
2021/03/22 02:20:40;;;;;;;20.27;4.20;;;;;;;4.26;72.97;101200.44;4971195;28;20230;-65
2021/03/22 02:23:57;;;;;;;19.03;4.23;;;;;;;4.26;72.59;101196.94;4973135;28;20204;-63
2021/03/22 02:26:38;;;;;;;17.37;3.53;;;;;;;4.26;72.64;101204.84;4972716;28;20240;-63
2021/03/22 02:29:35;;;;;;;16.63;2.57;;;;;;;4.26;73.08;101210.97;4973724;28;20697;-65
2021/03/22 02:32:18;;;;;;;15.30;3.43;;;;;;;4.25;73.18;101213.66;4967363;28;20208;-65
2021/03/22 02:34:49;;;;;;;12.40;3.13;;;;;;;4.24;72.60;101212.78;4972150;28;20706;-65
2021/03/22 02:37:35;;;;;;;17.93;3.40;;;;;;;4.23;72.46;101212.84;4968888;28;20236;-64
2021/03/22 02:40:11;;;;;;;12.57;3.10;;;;;;;4.22;72.29;101213.75;4970795;28;20207;-65
2021/03/22 02:42:43;;;;;;;19.10;3.27;;;;;;;4.21;72.13;101217.28;4972300;28;20693;-65
2021/03/22 02:45:11;;;;;;;14.53;2.80;;;;;;;4.21;72.14;101212.88;4972427;28;20604;-64
2021/03/22 02:47:39;;;;;;;16.70;3.13;;;;;;;4.21;72.01;101218.16;4971165;28;20678;-64
2021/03/22 02:50:10;;;;;;;10.73;2.83;;;;;;;4.20;71.71;101208.50;4973858;28;20296;-63
2021/03/22 02:53:00;;;;;;;11.47;3.20;;;;;;;4.20;72.40;101208.50;4971405;28;20243;-64
2021/03/22 02:55:33;;;;;;;13.23;2.53;;;;;;;4.21;71.89;101214.66;4972075;28;20228;-64
2021/03/22 02:58:05;;;;;;;13.13;3.23;;;;;;;4.20;71.88;101211.16;4974111;28;20339;-65
2021/03/22 03:00:34;;;;;;;15.20;3.20;;;;;;;4.21;71.30;101212.00;4974028;28;20758;-64
2021/03/22 03:03:05;;;;;;;17.20;3.10;;;;;;;4.19;71.62;101199.72;4968137;28;20208;-64
2021/03/22 03:05:33;;;;;;;15.00;3.40;;;;;;;4.20;71.36;101211.16;4973296;28;20220;-64
2021/03/22 03:08:03;;;;;;;14.60;3.57;;;;;;;4.21;70.89;101210.25;4974169;28;20291;-65
2021/03/22 03:10:29;;;;;;;13.47;2.47;;;;;;;4.19;70.90;101210.28;4972443;28;20210;-65
2021/03/22 03:12:55;;;;;;;15.70;2.90;;;;;;;4.21;70.60;101214.66;4968372;28;20299;-65
2021/03/22 03:15:23;;;;;;;13.70;3.10;;;;;;;4.20;70.88;101211.16;4967520;28;20725;-65
2021/03/22 03:17:51;;;;;;;11.90;3.43;;;;;;;4.20;70.44;101221.69;4968030;28;20209;-65
2021/03/22 03:20:20;;;;;;;11.47;2.70;;;;;;;4.21;70.57;101217.28;4973422;28;20204;-65
2021/03/22 03:22:47;;;;;;;14.43;2.97;;;;;;;4.21;70.52;101217.28;4967829;28;20206;-64
2021/03/22 03:25:14;;;;;;;10.03;2.73;;;;;;;4.23;69.59;101223.38;4973092;28;20231;-64
2021/03/22 03:27:40;;;;;;;17.90;3.10;;;;;;;4.23;69.83;101226.00;4972456;28;20211;-64
2021/03/22 03:30:09;;;;;;;14.17;2.83;;;;;;;4.25;69.95;101227.72;4968192;28;20254;-64
2021/03/22 03:32:35;;;;;;;12.30;2.90;;;;;;;4.26;70.79;101226.81;4971571;28;20687;-65
2021/03/22 03:35:01;;;;;;;14.30;2.57;;;;;;;4.27;70.04;101227.66;4973618;28;20244;-64
2021/03/22 03:37:27;;;;;;;18.43;3.57;;;;;;;4.28;69.87;101226.75;4971366;28;20731;-63
2021/03/22 03:39:54;;;;;;;21.70;3.47;;;;;;;4.27;70.80;101227.66;4972418;28;20652;-63
2021/03/22 03:42:20;;;;;;;13.87;2.83;;;;;;;4.26;71.07;101221.53;4970462;28;20208;-64
2021/03/22 03:44:46;;;;;;;13.37;3.40;;;;;;;4.27;70.51;101228.53;4973163;28;20227;-65
2021/03/22 03:47:12;;;;;;;17.50;2.70;;;;;;;4.26;71.04;101220.66;4973420;28;20204;-65
2021/03/22 03:49:38;;;;;;;13.50;2.73;;;;;;;4.26;71.29;101231.22;4972588;28;20214;-64
2021/03/22 03:52:07;;;;;;;17.90;3.13;;;;;;;4.26;70.68;101239.13;4971998;28;20670;-60
2021/03/22 03:54:34;;;;;;;19.30;2.87;;;;;;;4.26;70.91;101247.03;4967935;28;20745;-64
2021/03/22 03:57:01;;;;;;;9.63;2.73;;;;;;;4.25;71.46;101245.28;4966182;28;20239;-64
2021/03/22 03:59:27;;;;;;;14.03;2.50;;;;;;;4.24;71.25;101249.72;4971470;28;20204;-64
2021/03/22 04:01:53;;;;;;;14.97;3.63;;;;;;;4.23;71.58;101245.34;4972049;28;20204;-64
2021/03/22 04:04:20;;;;;;;17.50;3.30;;;;;;;4.24;71.83;101248.84;4971362;28;20307;-64
2021/03/22 04:06:46;;;;;;;16.17;3.17;;;;;;;4.22;71.82;101246.25;4972457;28;20295;-64
2021/03/22 04:09:15;;;;;;;17.90;3.33;;;;;;;4.22;71.37;101248.88;4972302;28;20214;-64
2021/03/22 04:11:44;;;;;;;16.13;3.17;;;;;;;4.22;71.57;101250.66;4971708;28;20212;-64
2021/03/22 04:14:19;;;;;;;20.83;3.30;;;;;;;4.21;71.58;101251.56;4972389;28;20211;-64
2021/03/22 04:16:46;;;;;;;12.33;3.17;;;;;;;4.21;72.30;101255.06;4968832;28;20224;-64
2021/03/22 04:19:13;;;;;;;14.33;3.90;;;;;;;4.20;71.69;101258.59;4966453;28;20287;-64
2021/03/22 04:21:39;;;;;;;15.60;2.90;;;;;;;4.19;71.79;101256.88;4971770;28;20639;-64
2021/03/22 04:24:07;;;;;;;14.27;2.73;;;;;;;4.19;72.09;101264.78;4972569;28;20204;-64
2021/03/22 04:26:33;;;;;;;17.23;3.50;;;;;;;4.18;72.10;101258.63;4972400;28;20769;-64
2021/03/22 04:28:59;;;;;;;13.50;2.87;;;;;;;4.18;72.65;101256.00;4972690;28;20252;-64
2021/03/22 04:31:29;;;;;;;14.77;3.10;;;;;;;4.19;72.48;101259.50;4968025;28;20213;-64
2021/03/22 04:33:56;;;;;;;11.30;3.17;;;;;;;4.21;72.62;101251.56;4969451;28;20298;-64
2021/03/22 04:36:25;;;;;;;16.17;3.10;;;;;;;4.21;72.47;101254.19;4973355;28;20228;-65
2021/03/22 04:38:52;;;;;;;12.43;3.23;;;;;;;4.19;72.84;101249.81;4977623;28;20291;-64
2021/03/22 04:41:18;;;;;;;19.53;3.03;;;;;;;4.21;72.95;101243.66;4985496;28;20298;-63
2021/03/22 04:43:45;;;;;;;14.63;3.50;;;;;;;4.21;73.11;101248.91;4987211;28;20705;-65
2021/03/22 04:46:11;;;;;;;20.07;3.73;;;;;;;4.21;72.52;101251.56;4986470;28;20286;-65
2021/03/22 04:48:38;;;;;;;16.47;3.67;;;;;;;4.22;72.99;101250.66;4980191;28;20298;-64
2021/03/22 04:51:05;;;;;;;18.70;3.53;;;;;;;4.22;72.50;101250.66;4986855;28;20287;-65
2021/03/22 04:53:32;;;;;;;15.40;3.23;;;;;;;4.22;73.22;101250.66;4983223;28;20207;-64
2021/03/22 04:55:58;;;;;;;16.20;3.30;;;;;;;4.23;73.12;101263.78;4976851;28;20232;-64
2021/03/22 04:58:24;;;;;;;22.77;4.63;;;;;;;4.24;72.63;101264.66;4971992;28;20715;-65
2021/03/22 05:00:51;;;;;;;17.87;3.33;;;;;;;4.22;72.79;101266.47;4969127;28;20295;-63
2021/03/22 05:03:21;;;;;;;13.47;3.17;;;;;;;4.22;73.26;101269.09;4968168;28;20260;-64
2021/03/22 05:05:49;;;;;;;16.43;2.93;;;;;;;4.21;73.66;101277.91;4976231;28;20713;-65
2021/03/22 05:08:18;;;;;;;14.23;3.00;;;;;;;4.21;73.72;101265.59;4977642;28;20219;-64
2021/03/22 05:10:48;;;;;;;14.20;3.33;;;;;;;4.21;73.34;101268.25;4977344;28;20682;-65
2021/03/22 05:13:16;;;;;;;17.13;3.80;;;;;;;4.21;73.21;101270.88;4975771;28;20215;-64
2021/03/22 05:15:42;;;;;;;15.67;3.33;;;;;;;4.21;73.52;101272.66;4976950;28;20262;-64
2021/03/22 05:18:11;;;;;;;17.13;3.00;;;;;;;4.21;73.43;101273.50;4978100;28;20204;-64
2021/03/22 05:20:39;;;;;;;22.97;3.97;;;;;;;4.22;73.38;101277.00;4976059;28;20208;-64
2021/03/22 05:23:08;;;;;;;17.10;3.50;;;;;;;4.20;73.99;101274.41;4975592;28;20623;-65
2021/03/22 05:25:34;;;;;;;14.60;3.83;;;;;;;4.19;74.19;101283.22;4976809;28;20230;-64
2021/03/22 05:28:01;;;;;;;17.67;3.83;;;;;;;4.19;74.21;101289.38;4976446;28;20298;-64
2021/03/22 05:30:28;;;;;;;13.60;2.97;;;;;;;4.19;74.43;101294.63;4971912;28;20630;-64
2021/03/22 05:32:57;;;;;;;13.77;3.07;;;;;;;4.17;74.46;101291.19;4973638;28;20200;-65
2021/03/22 05:35:24;;;;;;;12.47;3.07;;;;;;;4.16;74.41;101286.81;4975508;28;20224;-62
2021/03/22 05:37:50;;;;;;;18.43;4.37;;;;;;;4.17;73.95;101285.91;4973940;28;20201;-64
2021/03/22 05:40:23;;;;;;;13.80;3.50;;;;;;;4.17;74.98;101292.94;4976094;28;20204;-64
2021/03/22 05:42:59;;;;;;;17.10;4.17;;;;;;;4.16;75.22;101289.44;4975616;28;20227;-64
2021/03/22 05:45:56;;;;;;;13.97;3.63;;;;;;;4.16;74.39;101292.09;4995154;22;20365;-61
2021/03/22 05:48:51;;;;;;;17.77;4.73;;;;;;;4.16;74.56;101292.09;4971694;28;20599;-62
2021/03/22 05:51:34;;;;;;;16.43;3.67;;;;;;;4.15;75.45;101287.72;4978936;28;20207;-62
2021/03/22 05:54:10;;;;;;;19.03;4.30;;;;;;;4.16;75.37;101286.81;4977627;28;20218;-62
2021/03/22 05:56:45;;;;;;;21.87;3.73;;;;;;;4.15;74.67;101290.34;4983360;28;20230;-62
2021/03/22 05:59:25;;;;;;;16.23;4.03;;;;;;;4.16;74.92;101285.94;4992744;28;20293;-62
2021/03/22 06:01:57;;;;;;;17.97;3.97;;;;;;;4.17;75.12;101287.69;4992039;28;20303;-62
2021/03/22 06:04:28;;;;;;;13.40;3.80;;;;;;;4.17;75.22;101296.44;4984453;28;20212;-62
2021/03/22 06:06:54;;;;;;;14.37;3.37;;;;;;;4.17;75.37;101285.03;4983149;28;20216;-62
2021/03/22 06:09:31;;;;;;;21.83;3.50;;;;;;;4.17;75.63;101290.31;4984477;28;20269;-62
2021/03/22 06:12:03;;;;;;;13.40;3.30;;;;;;;4.17;75.06;101291.19;4981832;28;20199;-62
2021/03/22 06:14:43;;;;;;;10.47;2.80;;;;;;;4.19;75.02;101288.50;4986823;28;20207;-62
2021/03/22 06:17:16;;;;;;;11.00;3.20;;;;;;;4.21;75.08;101291.09;4982721;28;20228;-62
2021/03/22 06:19:49;;;;;;;12.77;2.73;;;;;;;4.22;74.76;101303.38;4992030;28;21913;-61
2021/03/22 06:22:21;;;;;;;8.57;2.57;;;;;;;4.23;74.59;101298.06;4984703;28;20219;-61
2021/03/22 06:24:48;;;;;;;10.60;2.70;;;;;;;4.24;74.77;101299.78;4987460;28;20347;-62
2021/03/22 06:27:16;;;;;;;7.70;2.30;;;;;;;4.25;74.02;101298.03;4982224;28;20736;-62
2021/03/22 06:29:43;;;;;;;14.33;2.80;;;;;;;4.26;74.28;101303.25;4985703;28;20204;-67
2021/03/22 06:32:15;;;;;;;10.13;2.27;;;;;;;4.30;73.91;101306.69;4986229;28;20211;-67
2021/03/22 06:34:48;;;;;;;10.10;2.53;;;;;;;4.32;73.23;101304.84;4986325;28;20199;-67
2021/03/22 06:37:16;;;;;;;7.90;2.50;;;;;;;4.37;73.50;101309.09;4986776;28;20249;-67
2021/03/22 06:39:42;;;;;;;10.53;2.53;;;;;;;4.42;72.93;101312.47;4987898;28;20219;-65
2021/03/22 06:42:19;;;;;;;11.60;2.70;;;;;;;4.50;71.95;101317.53;4983098;28;20215;-66
2021/03/22 06:44:46;;;;;;;13.03;2.97;;;;;;;4.62;71.75;101324.25;4986712;28;20207;-66
2021/03/22 06:47:22;;;;;;;21.30;3.93;;;;;;;4.74;71.86;101316.84;4987776;28;20217;-66
2021/03/22 06:49:50;;;;;;;17.60;4.53;;;;;;;4.87;72.35;101320.84;4980875;28;20294;-66
2021/03/22 06:52:20;;;;;;;19.67;3.17;;;;;;;4.97;71.81;101310.91;4986423;28;20693;-67
2021/03/22 06:54:48;;;;;;;11.87;3.00;;;;;;;5.05;71.85;101315.94;4990672;28;20345;-66
2021/03/22 06:57:18;;;;;;;12.37;4.07;;;;;;;5.12;72.41;101320.13;4990603;28;20636;-66
2021/03/22 07:00:08;;;;;;;12.70;3.33;;;;;;;5.17;72.12;101307.66;4992660;28;20218;-67
2021/03/22 07:02:42;;;;;;;16.33;3.63;;;;;;;5.21;72.00;101325.13;4990524;28;20203;-67
2021/03/22 07:05:38;;;;;;;13.23;3.23;;;;;;;5.24;72.27;101325.03;4992650;28;20245;-67
2021/03/22 07:08:06;;;;;;;18.97;4.00;;;;;;;5.30;71.85;101329.28;4983520;28;20670;-66
2021/03/22 07:10:35;;;;;;;23.43;3.60;;;;;;;5.30;72.17;101335.44;4992939;28;20207;-66
2021/03/22 07:13:23;;;;;;;14.20;4.10;;;;;;;5.31;72.08;101328.38;4992482;28;20681;-66
2021/03/22 07:15:51;;;;;;;17.17;3.13;;;;;;;5.31;71.75;101334.50;4985753;28;20311;-66
2021/03/22 07:18:26;;;;;;;18.77;3.63;;;;;;;5.32;72.06;101340.66;4992568;28;20720;-67
2021/03/22 07:21:11;;;;;;;15.50;3.30;;;;;;;5.31;71.50;101339.78;4988198;28;20298;-67
2021/03/22 07:24:02;;;;;;;15.30;3.63;;;;;;;5.33;71.30;101340.63;4991763;28;20903;-66
2021/03/22 07:26:48;;;;;;;12.23;3.00;;;;;;;5.35;71.46;101348.50;4992227;28;20216;-66
2021/03/22 07:30:00;;;;;;;12.37;3.13;;;;;;;5.36;70.97;101339.66;4988140;28;20712;-64
2021/03/22 07:32:45;;;;;;;14.53;3.47;;;;;;;5.37;70.85;101357.25;4987363;28;20214;-66
2021/03/22 07:35:24;;;;;;;12.13;3.40;;;;;;;5.37;70.78;101352.81;4987469;28;20232;-67
2021/03/22 07:37:58;;;;;;;10.77;3.70;;;;;;;5.37;70.36;101358.09;4987605;28;20260;-66
2021/03/22 07:40:38;;;;;;;11.37;3.57;;;;;;;5.41;70.26;101364.13;4992120;28;20249;-67
2021/03/22 07:43:13;;;;;;;11.53;3.83;;;;;;;5.44;70.01;101364.03;4992027;28;20214;-66
2021/03/22 07:45:54;;;;;;;9.00;3.27;;;;;;;5.48;69.71;101361.28;4991689;28;20227;-67
2021/03/22 07:48:34;;;;;;;8.73;3.30;;;;;;;5.56;69.84;101367.16;4992850;28;20215;-66
2021/03/22 07:51:11;;;;;;;13.97;3.33;;;;;;;5.63;69.58;101370.50;4985743;28;20580;-66
2021/03/22 07:53:44;;;;;;;13.67;3.37;;;;;;;5.67;69.26;101371.28;4985934;28;20204;-66
2021/03/22 07:56:22;;;;;;;12.20;3.23;;;;;;;5.65;69.06;101376.59;4985169;28;20697;-66
2021/03/22 07:59:06;;;;;;;9.80;3.47;;;;;;;5.67;69.04;101372.13;4983525;28;20673;-66
2021/03/22 08:01:55;;;;;;;18.40;3.73;;;;;;;5.75;68.78;101370.09;4992063;28;20203;-65
2021/03/22 08:04:44;;;;;;;12.97;3.50;;;;;;;5.85;68.54;101360.97;4991291;28;20453;-66
2021/03/22 08:07:33;;;;;;;10.77;2.90;;;;;;;6.03;68.76;101371.88;4982588;28;20206;-67
2021/03/22 08:10:33;;;;;;;11.20;3.90;;;;;;;6.15;67.72;101371.47;4991502;28;20204;-67
2021/03/22 08:13:07;;;;;;;7.50;3.27;;;;;;;6.20;67.43;101381.00;4981679;28;20200;-66
2021/03/22 08:15:42;;;;;;;9.90;4.00;;;;;;;6.22;66.89;101371.22;4987905;28;20688;-66
2021/03/22 08:18:24;;;;;;;15.00;4.23;;;;;;;6.32;66.59;101370.91;4979489;28;20575;-67
2021/03/22 08:21:00;;;;;;;8.73;3.27;;;;;;;6.45;66.97;101367.78;4991934;28;20227;-66
2021/03/22 08:23:32;;;;;;;6.57;2.80;;;;;;;6.56;64.84;101375.34;4991104;28;20217;-67
2021/03/22 08:26:01;;;;;;;8.27;2.70;;;;;;;6.68;65.53;101380.19;4991693;28;20220;-67
2021/03/22 08:28:33;;;;;;;12.77;3.13;;;;;;;6.84;65.22;101377.84;4991100;28;20218;-68
2021/03/22 08:31:06;;;;;;;12.43;3.67;;;;;;;7.01;65.03;101383.41;4991627;28;20200;-66
2021/03/22 08:33:39;;;;;;;11.23;3.60;;;;;;;7.19;64.73;101384.50;4990828;28;20217;-66
2021/03/22 08:36:29;;;;;;;9.17;3.17;;;;;;;7.31;63.92;101376.97;4987392;28;20780;-66
2021/03/22 08:39:01;;;;;;;9.50;2.80;;;;;;;7.32;63.44;101381.34;4986804;28;20218;-66
2021/03/22 08:41:32;;;;;;;9.27;3.47;;;;;;;7.30;62.86;101382.34;4991246;28;20291;-66
2021/03/22 08:44:06;;;;;;;12.87;3.80;;;;;;;7.25;62.46;101390.44;4988357;28;20287;-66
2021/03/22 08:46:39;;;;;;;11.50;3.00;;;;;;;7.20;62.22;101397.69;4991033;28;20334;-66
2021/03/22 08:49:23;;;;;;;9.13;3.10;;;;;;;7.14;62.16;101394.44;4977981;28;20208;-66
2021/03/22 08:51:52;;;;;;;9.33;3.13;;;;;;;7.12;61.45;101401.56;4988973;28;20254;-65
2021/03/22 08:54:26;;;;;;;9.07;3.67;;;;;;;7.12;61.63;101402.44;4991387;28;20655;-66
2021/03/22 08:57:02;;;;;;;14.20;4.40;;;;;;;7.13;61.65;101401.50;4976498;28;20233;-66
2021/03/22 08:59:29;;;;;;;9.07;3.60;;;;;;;7.15;60.98;101402.31;4976959;28;20212;-66
2021/03/22 09:02:16;;;;;;;9.40;3.50;;;;;;;7.27;60.94;101411.59;4976882;28;20207;-66
2021/03/22 09:04:43;;;;;;;9.50;3.07;;;;;;;7.35;60.84;101403.31;4982270;28;20689;-67
2021/03/22 09:07:31;;;;;;;8.80;3.13;;;;;;;7.51;61.31;101407.16;4979251;28;20205;-66
2021/03/22 09:10:43;;;;;;;11.60;3.40;;;;;;;7.72;60.61;101413.38;4983255;28;20291;-66
2021/03/22 09:13:28;;;;;;;7.73;3.00;;;;;;;7.92;60.82;101411.66;4956900;28;20239;-67
2021/03/22 09:16:36;;;;;;;7.47;2.70;;;;;;;8.05;60.45;101403.22;4986362;28;20230;-67
2021/03/22 09:19:41;;;;;;;8.53;3.13;;;;;;;8.06;59.57;101416.41;4987559;28;20209;-66
2021/03/22 09:22:41;;;;;;;11.23;3.40;;;;;;;8.05;59.99;101416.50;4977953;28;20306;-68
2021/03/22 09:25:11;;;;;;;12.83;3.27;;;;;;;7.99;58.73;101412.28;4976469;28;20236;-67
2021/03/22 09:27:37;;;;;;;5.97;2.77;;;;;;;7.93;59.02;101417.84;4980449;28;20200;-64
2021/03/22 09:30:34;;;;;;;8.80;3.00;;;;;;;7.86;59.06;101419.88;4977947;28;20219;-67
2021/03/22 09:33:00;;;;;;;7.40;3.17;;;;;;;7.83;58.75;101417.34;4981284;28;20291;-67
2021/03/22 09:35:47;;;;;;;9.87;3.30;;;;;;;7.89;59.27;101422.38;4974839;28;20327;-66
2021/03/22 09:38:41;;;;;;;7.63;3.37;;;;;;;7.96;58.60;101420.38;4977023;28;20724;-66
2021/03/22 09:41:07;;;;;;;14.77;3.57;;;;;;;8.02;58.56;101425.44;4976922;28;20212;-66
2021/03/22 09:43:37;;;;;;;7.43;2.60;;;;;;;8.11;58.04;101425.03;4976687;28;20681;-66
2021/03/22 09:46:17;;;;;;;6.57;2.50;;;;;;;8.24;58.21;101422.78;4976419;28;20752;-67
2021/03/22 09:48:43;;;;;;;8.67;3.73;;;;;;;8.42;57.82;101423.84;4977133;28;20215;-68
2021/03/22 09:51:33;;;;;;;13.53;3.20;;;;;;;8.58;57.54;101422.25;4977556;28;20298;-66
2021/03/22 09:54:02;;;;;;;12.77;3.83;;;;;;;8.58;56.78;101432.88;4979488;28;20283;-66
2021/03/22 09:56:31;;;;;;;10.57;3.63;;;;;;;8.54;56.67;101425.97;4981590;28;20270;-66
2021/03/22 09:59:25;;;;;;;13.67;3.67;;;;;;;8.58;56.77;101428.44;4980856;28;20215;-66
2021/03/22 10:01:53;;;;;;;11.70;3.53;;;;;;;8.61;56.86;101424.75;4978321;28;20227;-67
2021/03/22 10:04:30;;;;;;;6.90;2.90;;;;;;;8.66;56.41;101430.72;4979553;28;20247;-67
2021/03/22 10:07:05;;;;;;;8.07;3.13;;;;;;;8.68;55.69;101432.41;4981967;28;20224;-66
2021/03/22 10:09:41;;;;;;;9.20;3.30;;;;;;;8.68;55.93;101431.53;4984278;28;20200;-67
2021/03/22 10:12:17;;;;;;;9.80;3.27;;;;;;;8.68;55.41;101432.41;4986193;28;20215;-67
2021/03/22 10:14:46;;;;;;;7.27;3.30;;;;;;;8.69;55.67;101427.94;4986199;28;20691;-66
2021/03/22 10:17:28;;;;;;;10.70;3.27;;;;;;;8.65;54.56;101429.88;4986522;28;20228;-67
2021/03/22 10:20:00;;;;;;;9.90;3.33;;;;;;;8.69;54.93;101430.59;4984792;28;20302;-67
2021/03/22 10:22:27;;;;;;;10.73;2.97;;;;;;;8.83;54.79;101433.53;4989264;28;20336;-68
2021/03/22 10:25:03;;;;;;;9.03;2.93;;;;;;;8.95;54.43;101427.69;4993391;28;20214;-68
2021/03/22 10:27:32;;;;;;;6.43;2.80;;;;;;;9.05;54.13;101425.47;4986517;28;20675;-68
2021/03/22 10:30:21;;;;;;;9.37;3.33;;;;;;;9.09;53.58;101428.88;4984796;28;20199;-67
2021/03/22 10:32:51;;;;;;;8.87;3.27;;;;;;;9.03;53.13;101430.00;4987112;28;20211;-68
2021/03/22 10:35:19;;;;;;;11.00;3.47;;;;;;;8.96;53.15;101432.03;4992240;28;20231;-67
2021/03/22 10:37:48;;;;;;;8.47;3.33;;;;;;;8.95;53.25;101424.16;4992669;28;20223;-67
2021/03/22 10:40:24;;;;;;;6.57;2.87;;;;;;;8.98;52.87;101427.53;4992985;28;20215;-68
2021/03/22 10:42:53;;;;;;;7.77;2.53;;;;;;;9.07;52.89;101428.94;4986838;28;20254;-67
2021/03/22 10:45:36;;;;;;;8.53;2.63;;;;;;;9.19;52.46;101430.16;4989251;28;20294;-67
2021/03/22 10:48:23;;;;;;;5.33;2.80;;;;;;;9.24;52.53;101430.81;4987710;28;20196;-68
2021/03/22 10:50:59;;;;;;;7.47;2.80;;;;;;;9.29;52.47;101431.50;4983552;28;20295;-67
2021/03/22 10:53:25;;;;;;;6.40;2.67;;;;;;;9.34;52.26;101426.81;4978474;28;20218;-67
2021/03/22 10:55:52;;;;;;;7.33;2.83;;;;;;;9.34;52.18;101424.13;4980379;28;20255;-68
2021/03/22 10:58:24;;;;;;;8.20;3.00;;;;;;;9.37;51.54;101419.56;4980168;28;20204;-69
2021/03/22 11:00:58;;;;;;;6.43;2.40;;;;;;;9.48;52.25;101427.06;4987037;28;20652;-66
2021/03/22 11:03:25;;;;;;;8.10;2.60;;;;;;;9.51;50.41;101429.53;4987034;28;20215;-68
2021/03/22 11:05:54;;;;;;;10.23;2.80;;;;;;;9.56;51.27;101419.56;4978197;28;20227;-67
2021/03/22 11:08:25;;;;;;;6.60;2.67;;;;;;;9.66;50.41;101414.69;4982648;28;20586;-70
2021/03/22 11:10:59;;;;;;;6.80;3.27;;;;;;;9.70;50.57;101422.44;4980682;28;20295;-68
2021/03/22 11:13:28;;;;;;;6.73;2.80;;;;;;;9.72;50.06;101423.22;4981453;28;20203;-68
2021/03/22 11:15:55;;;;;;;6.43;2.43;;;;;;;9.69;49.32;101427.81;4983195;28;20227;-67
2021/03/22 11:18:23;;;;;;;5.90;2.20;;;;;;;9.62;49.43;101434.38;4987927;28;20204;-69
2021/03/22 11:20:51;;;;;;;7.07;2.40;;;;;;;9.62;49.97;101429.94;4979701;28;20296;-67
2021/03/22 11:23:25;;;;;;;6.80;2.47;;;;;;;9.66;50.15;101436.84;4979494;28;20204;-66
2021/03/22 11:25:52;;;;;;;5.50;1.87;;;;;;;9.71;50.28;101434.78;4979047;28;20228;-68
2021/03/22 11:28:29;;;;;;;11.30;3.07;;;;;;;9.81;49.70;101440.56;4978063;28;20200;-67
2021/03/22 11:31:03;;;;;;;7.20;2.63;;;;;;;9.92;49.85;101440.03;4976416;28;20212;-68
2021/03/22 11:33:36;;;;;;;5.47;2.43;;;;;;;10.01;49.70;101428.97;4977818;28;20641;-68
2021/03/22 11:36:12;;;;;;;8.37;2.23;;;;;;;10.08;49.35;101428.56;4979630;28;20220;-68
2021/03/22 11:38:49;;;;;;;7.13;2.27;;;;;;;10.16;48.88;101427.34;4984418;28;20228;-64
2021/03/22 11:41:31;;;;;;;6.03;2.60;;;;;;;10.15;46.92;101428.28;4983405;28;20693;-68
2021/03/22 11:44:04;;;;;;;6.40;2.70;;;;;;;10.06;47.21;101426.91;4989315;28;20629;-69
2021/03/22 11:46:30;;;;;;;4.30;2.40;;;;;;;10.04;47.52;101428.78;5319695;22;20263;-71
2021/03/22 11:48:57;;;;;;;6.40;2.50;;;;;;;10.03;47.67;101432.41;4982596;28;20231;-71
2021/03/22 11:51:23;;;;;;;8.10;2.73;;;;;;;10.06;48.35;101430.44;4980654;28;20291;-70
2021/03/22 11:54:01;;;;;;;6.23;2.50;;;;;;;10.11;48.37;101432.88;4978359;28;20307;-71